sensor_id;sensor_type;location;lat;lon;timestamp;P1;durP1;ratioP1;P2;durP2;ratioP2
19587;SDS011;9940;47.252;8.696;2023-03-30T00:00:02;7.53;;;1.40;;
19587;SDS011;9940;47.252;8.696;2023-03-30T00:02:46;5.05;;;1.30;;
19587;SDS011;9940;47.252;8.696;2023-03-30T00:05:13;5.63;;;1.30;;
19587;SDS011;9940;47.252;8.696;2023-03-30T00:07:39;5.30;;;1.42;;
19587;SDS011;9940;47.252;8.696;2023-03-30T00:10:15;4.53;;;1.40;;
19587;SDS011;9940;47.252;8.696;2023-03-30T00:12:43;3.33;;;1.17;;
19587;SDS011;9940;47.252;8.696;2023-03-30T00:15:11;4.45;;;1.08;;
19587;SDS011;9940;47.252;8.696;2023-03-30T00:17:39;4.45;;;1.05;;
19587;SDS011;9940;47.252;8.696;2023-03-30T00:20:05;8.05;;;1.60;;
19587;SDS011;9940;47.252;8.696;2023-03-30T00:22:38;2.80;;;1.25;;
19587;SDS011;9940;47.252;8.696;2023-03-30T00:25:12;5.88;;;1.42;;
19587;SDS011;9940;47.252;8.696;2023-03-30T00:27:41;7.45;;;1.58;;
19587;SDS011;9940;47.252;8.696;2023-03-30T00:30:09;4.30;;;1.20;;
19587;SDS011;9940;47.252;8.696;2023-03-30T00:32:37;8.85;;;1.30;;
19587;SDS011;9940;47.252;8.696;2023-03-30T00:35:03;9.38;;;1.20;;
19587;SDS011;9940;47.252;8.696;2023-03-30T00:37:31;5.10;;;1.15;;
19587;SDS011;9940;47.252;8.696;2023-03-30T00:39:57;10.50;;;1.52;;
19587;SDS011;9940;47.252;8.696;2023-03-30T00:42:25;10.95;;;1.73;;
19587;SDS011;9940;47.252;8.696;2023-03-30T00:45:07;3.65;;;1.08;;
19587;SDS011;9940;47.252;8.696;2023-03-30T00:47:37;8.63;;;1.40;;
19587;SDS011;9940;47.252;8.696;2023-03-30T00:50:06;8.13;;;1.65;;
19587;SDS011;9940;47.252;8.696;2023-03-30T00:52:32;4.53;;;1.25;;
19587;SDS011;9940;47.252;8.696;2023-03-30T00:55:01;7.22;;;1.65;;
19587;SDS011;9940;47.252;8.696;2023-03-30T00:57:28;10.50;;;1.50;;
19587;SDS011;9940;47.252;8.696;2023-03-30T00:59:55;7.90;;;1.60;;
19587;SDS011;9940;47.252;8.696;2023-03-30T01:02:21;9.25;;;1.80;;
19587;SDS011;9940;47.252;8.696;2023-03-30T01:04:48;9.02;;;2.20;;
19587;SDS011;9940;47.252;8.696;2023-03-30T01:07:17;10.30;;;1.15;;
19587;SDS011;9940;47.252;8.696;2023-03-30T01:09:43;9.70;;;1.75;;
19587;SDS011;9940;47.252;8.696;2023-03-30T01:12:12;8.10;;;1.65;;
19587;SDS011;9940;47.252;8.696;2023-03-30T01:14:37;5.90;;;1.63;;
19587;SDS011;9940;47.252;8.696;2023-03-30T01:47:34;5.82;;;1.30;;
19587;SDS011;9940;47.252;8.696;2023-03-30T01:50:04;15.75;;;1.95;;
19587;SDS011;9940;47.252;8.696;2023-03-30T01:55:31;12.30;;;1.40;;
19587;SDS011;9940;47.252;8.696;2023-03-30T01:58:14;3.85;;;1.30;;
19587;SDS011;9940;47.252;8.696;2023-03-30T02:00:51;10.35;;;1.63;;
19587;SDS011;9940;47.252;8.696;2023-03-30T02:03:20;4.85;;;1.25;;
19587;SDS011;9940;47.252;8.696;2023-03-30T02:05:52;6.03;;;1.40;;
19587;SDS011;9940;47.252;8.696;2023-03-30T02:08:39;6.15;;;1.88;;
19587;SDS011;9940;47.252;8.696;2023-03-30T02:11:06;7.03;;;1.40;;
19587;SDS011;9940;47.252;8.696;2023-03-30T02:13:38;7.72;;;1.33;;
19587;SDS011;9940;47.252;8.696;2023-03-30T02:16:08;8.35;;;1.73;;
19587;SDS011;9940;47.252;8.696;2023-03-30T02:18:39;8.00;;;1.58;;
19587;SDS011;9940;47.252;8.696;2023-03-30T02:21:05;7.63;;;1.58;;
19587;SDS011;9940;47.252;8.696;2023-03-30T02:23:37;5.30;;;1.50;;
19587;SDS011;9940;47.252;8.696;2023-03-30T02:26:09;6.63;;;1.60;;
19587;SDS011;9940;47.252;8.696;2023-03-30T02:28:35;9.68;;;1.40;;
19587;SDS011;9940;47.252;8.696;2023-03-30T02:31:03;6.82;;;1.13;;
19587;SDS011;9940;47.252;8.696;2023-03-30T02:38:51;2.75;;;1.10;;
19587;SDS011;9940;47.252;8.696;2023-03-30T02:49:46;6.45;;;1.10;;
19587;SDS011;9940;47.252;8.696;2023-03-30T02:55:29;5.20;;;1.67;;
19587;SDS011;9940;47.252;8.696;2023-03-30T03:04:03;8.15;;;1.35;;
19587;SDS011;9940;47.252;8.696;2023-03-30T03:06:12;5.65;;;1.40;;
19587;SDS011;9940;47.252;8.696;2023-03-30T03:08:40;4.03;;;1.40;;
19587;SDS011;9940;47.252;8.696;2023-03-30T03:11:07;3.78;;;1.13;;
19587;SDS011;9940;47.252;8.696;2023-03-30T03:13:35;6.45;;;1.10;;
19587;SDS011;9940;47.252;8.696;2023-03-30T03:16:04;8.73;;;1.42;;
19587;SDS011;9940;47.252;8.696;2023-03-30T03:18:32;4.68;;;1.23;;
19587;SDS011;9940;47.252;8.696;2023-03-30T03:21:04;8.00;;;1.50;;
19587;SDS011;9940;47.252;8.696;2023-03-30T03:23:30;8.20;;;1.30;;
19587;SDS011;9940;47.252;8.696;2023-03-30T03:25:58;6.25;;;1.13;;
19587;SDS011;9940;47.252;8.696;2023-03-30T03:28:25;7.18;;;1.27;;
19587;SDS011;9940;47.252;8.696;2023-03-30T03:30:54;9.50;;;1.40;;
19587;SDS011;9940;47.252;8.696;2023-03-30T03:33:20;11.90;;;1.30;;
19587;SDS011;9940;47.252;8.696;2023-03-30T03:35:46;8.38;;;1.55;;
19587;SDS011;9940;47.252;8.696;2023-03-30T03:38:13;6.32;;;1.08;;
19587;SDS011;9940;47.252;8.696;2023-03-30T03:40:39;4.53;;;1.08;;
19587;SDS011;9940;47.252;8.696;2023-03-30T03:43:05;7.40;;;1.00;;
19587;SDS011;9940;47.252;8.696;2023-03-30T03:45:31;4.95;;;0.98;;
19587;SDS011;9940;47.252;8.696;2023-03-30T03:47:59;9.32;;;1.40;;
19587;SDS011;9940;47.252;8.696;2023-03-30T03:50:24;7.45;;;1.00;;
19587;SDS011;9940;47.252;8.696;2023-03-30T03:52:50;5.88;;;1.30;;
19587;SDS011;9940;47.252;8.696;2023-03-30T03:55:16;6.75;;;1.23;;
19587;SDS011;9940;47.252;8.696;2023-03-30T03:57:44;5.57;;;1.10;;
19587;SDS011;9940;47.252;8.696;2023-03-30T04:00:09;2.80;;;0.80;;
19587;SDS011;9940;47.252;8.696;2023-03-30T04:02:44;6.15;;;1.10;;
19587;SDS011;9940;47.252;8.696;2023-03-30T04:05:10;2.33;;;0.80;;
19587;SDS011;9940;47.252;8.696;2023-03-30T04:07:38;5.68;;;0.90;;
19587;SDS011;9940;47.252;8.696;2023-03-30T04:10:04;4.18;;;0.90;;
19587;SDS011;9940;47.252;8.696;2023-03-30T04:12:31;7.95;;;1.10;;
19587;SDS011;9940;47.252;8.696;2023-03-30T04:14:59;6.32;;;1.42;;
19587;SDS011;9940;47.252;8.696;2023-03-30T04:17:27;4.72;;;1.00;;
19587;SDS011;9940;47.252;8.696;2023-03-30T04:19:58;4.93;;;1.33;;
19587;SDS011;9940;47.252;8.696;2023-03-30T04:22:32;7.32;;;1.50;;
19587;SDS011;9940;47.252;8.696;2023-03-30T04:25:02;5.70;;;1.13;;
19587;SDS011;9940;47.252;8.696;2023-03-30T04:27:29;10.45;;;1.42;;
19587;SDS011;9940;47.252;8.696;2023-03-30T04:29:55;11.60;;;1.55;;
19587;SDS011;9940;47.252;8.696;2023-03-30T04:32:23;4.43;;;1.17;;
19587;SDS011;9940;47.252;8.696;2023-03-30T04:34:51;4.82;;;1.10;;
19587;SDS011;9940;47.252;8.696;2023-03-30T04:37:20;11.63;;;1.50;;
19587;SDS011;9940;47.252;8.696;2023-03-30T04:39:54;10.43;;;2.60;;
19587;SDS011;9940;47.252;8.696;2023-03-30T04:42:22;6.15;;;1.17;;
19587;SDS011;9940;47.252;8.696;2023-03-30T04:44:58;9.18;;;0.90;;
19587;SDS011;9940;47.252;8.696;2023-03-30T04:47:26;12.07;;;1.38;;
19587;SDS011;9940;47.252;8.696;2023-03-30T04:49:55;7.65;;;1.50;;
19587;SDS011;9940;47.252;8.696;2023-03-30T04:52:23;7.53;;;1.63;;
19587;SDS011;9940;47.252;8.696;2023-03-30T04:54:49;4.55;;;1.00;;
19587;SDS011;9940;47.252;8.696;2023-03-30T04:57:15;6.38;;;1.20;;
19587;SDS011;9940;47.252;8.696;2023-03-30T04:59:42;2.33;;;1.20;;
19587;SDS011;9940;47.252;8.696;2023-03-30T05:02:10;8.68;;;1.40;;
19587;SDS011;9940;47.252;8.696;2023-03-30T05:04:40;7.13;;;1.80;;
19587;SDS011;9940;47.252;8.696;2023-03-30T05:07:06;7.43;;;1.38;;
19587;SDS011;9940;47.252;8.696;2023-03-30T05:09:32;9.68;;;1.58;;
19587;SDS011;9940;47.252;8.696;2023-03-30T05:11:58;4.30;;;1.20;;
19587;SDS011;9940;47.252;8.696;2023-03-30T05:14:24;7.60;;;1.10;;
19587;SDS011;9940;47.252;8.696;2023-03-30T05:16:50;7.68;;;1.55;;
19587;SDS011;9940;47.252;8.696;2023-03-30T05:19:16;6.78;;;1.42;;
19587;SDS011;9940;47.252;8.696;2023-03-30T05:21:49;4.10;;;1.10;;
19587;SDS011;9940;47.252;8.696;2023-03-30T05:24:14;6.97;;;1.13;;
19587;SDS011;9940;47.252;8.696;2023-03-30T05:26:47;6.32;;;2.08;;
19587;SDS011;9940;47.252;8.696;2023-03-30T05:29:15;4.72;;;1.00;;
19587;SDS011;9940;47.252;8.696;2023-03-30T05:31:46;5.85;;;1.13;;
19587;SDS011;9940;47.252;8.696;2023-03-30T05:34:11;8.45;;;1.40;;
19587;SDS011;9940;47.252;8.696;2023-03-30T05:36:37;6.85;;;1.00;;
19587;SDS011;9940;47.252;8.696;2023-03-30T05:39:02;5.63;;;1.33;;
19587;SDS011;9940;47.252;8.696;2023-03-30T05:41:33;4.20;;;1.10;;
19587;SDS011;9940;47.252;8.696;2023-03-30T05:43:59;6.88;;;1.38;;
19587;SDS011;9940;47.252;8.696;2023-03-30T05:46:25;7.32;;;1.33;;
19587;SDS011;9940;47.252;8.696;2023-03-30T05:48:51;7.60;;;1.20;;
19587;SDS011;9940;47.252;8.696;2023-03-30T05:51:17;6.43;;;1.02;;
19587;SDS011;9940;47.252;8.696;2023-03-30T05:53:42;3.90;;;1.25;;
19587;SDS011;9940;47.252;8.696;2023-03-30T05:56:11;8.73;;;1.13;;
19587;SDS011;9940;47.252;8.696;2023-03-30T05:58:37;7.72;;;1.33;;
19587;SDS011;9940;47.252;8.696;2023-03-30T06:01:02;9.10;;;1.40;;
19587;SDS011;9940;47.252;8.696;2023-03-30T06:03:29;3.33;;;1.25;;
19587;SDS011;9940;47.252;8.696;2023-03-30T06:05:55;5.10;;;1.40;;
19587;SDS011;9940;47.252;8.696;2023-03-30T06:08:21;15.15;;;1.88;;
19587;SDS011;9940;47.252;8.696;2023-03-30T06:10:56;5.18;;;1.50;;
19587;SDS011;9940;47.252;8.696;2023-03-30T06:13:24;3.28;;;1.23;;
19587;SDS011;9940;47.252;8.696;2023-03-30T06:15:51;5.03;;;1.30;;
19587;SDS011;9940;47.252;8.696;2023-03-30T06:18:19;6.22;;;1.50;;
19587;SDS011;9940;47.252;8.696;2023-03-30T06:20:50;8.57;;;1.50;;
19587;SDS011;9940;47.252;8.696;2023-03-30T06:23:16;11.05;;;1.77;;
19587;SDS011;9940;47.252;8.696;2023-03-30T06:25:45;4.90;;;1.10;;
19587;SDS011;9940;47.252;8.696;2023-03-30T06:28:17;6.47;;;1.27;;
19587;SDS011;9940;47.252;8.696;2023-03-30T06:30:44;8.05;;;1.83;;
19587;SDS011;9940;47.252;8.696;2023-03-30T06:33:13;4.00;;;1.35;;
19587;SDS011;9940;47.252;8.696;2023-03-30T06:35:43;2.55;;;1.10;;
19587;SDS011;9940;47.252;8.696;2023-03-30T06:38:11;8.82;;;1.27;;
19587;SDS011;9940;47.252;8.696;2023-03-30T06:40:38;4.57;;;1.38;;
19587;SDS011;9940;47.252;8.696;2023-03-30T06:43:03;10.25;;;2.38;;
19587;SDS011;9940;47.252;8.696;2023-03-30T06:45:33;8.27;;;1.63;;
19587;SDS011;9940;47.252;8.696;2023-03-30T06:48:01;8.15;;;1.65;;
19587;SDS011;9940;47.252;8.696;2023-03-30T06:50:27;5.60;;;1.25;;
19587;SDS011;9940;47.252;8.696;2023-03-30T06:52:54;4.30;;;1.33;;
19587;SDS011;9940;47.252;8.696;2023-03-30T06:55:20;6.47;;;1.20;;
19587;SDS011;9940;47.252;8.696;2023-03-30T06:57:46;7.20;;;2.95;;
19587;SDS011;9940;47.252;8.696;2023-03-30T07:00:11;11.02;;;1.70;;
19587;SDS011;9940;47.252;8.696;2023-03-30T07:02:39;4.68;;;1.33;;
19587;SDS011;9940;47.252;8.696;2023-03-30T07:05:05;8.77;;;1.65;;
19587;SDS011;9940;47.252;8.696;2023-03-30T07:07:32;5.78;;;1.83;;
19587;SDS011;9940;47.252;8.696;2023-03-30T07:10:00;11.52;;;1.50;;
19587;SDS011;9940;47.252;8.696;2023-03-30T07:12:33;8.90;;;1.23;;
19587;SDS011;9940;47.252;8.696;2023-03-30T07:15:03;5.68;;;1.15;;
19587;SDS011;9940;47.252;8.696;2023-03-30T07:17:33;5.07;;;1.08;;
19587;SDS011;9940;47.252;8.696;2023-03-30T07:19:59;7.38;;;1.20;;
19587;SDS011;9940;47.252;8.696;2023-03-30T07:22:25;5.65;;;1.83;;
19587;SDS011;9940;47.252;8.696;2023-03-30T07:24:54;6.57;;;1.25;;
19587;SDS011;9940;47.252;8.696;2023-03-30T07:27:19;8.45;;;1.63;;
19587;SDS011;9940;47.252;8.696;2023-03-30T07:29:48;4.75;;;1.63;;
19587;SDS011;9940;47.252;8.696;2023-03-30T07:32:17;8.40;;;1.25;;
19587;SDS011;9940;47.252;8.696;2023-03-30T07:34:43;7.93;;;1.73;;
19587;SDS011;9940;47.252;8.696;2023-03-30T07:37:10;5.28;;;1.52;;
19587;SDS011;9940;47.252;8.696;2023-03-30T07:39:36;7.68;;;1.40;;
19587;SDS011;9940;47.252;8.696;2023-03-30T07:42:02;8.65;;;1.55;;
19587;SDS011;9940;47.252;8.696;2023-03-30T07:44:31;8.65;;;1.45;;
19587;SDS011;9940;47.252;8.696;2023-03-30T07:46:56;7.82;;;1.20;;
19587;SDS011;9940;47.252;8.696;2023-03-30T07:49:22;6.97;;;1.30;;
19587;SDS011;9940;47.252;8.696;2023-03-30T07:51:52;3.83;;;1.20;;
19587;SDS011;9940;47.252;8.696;2023-03-30T07:54:20;10.43;;;1.33;;
19587;SDS011;9940;47.252;8.696;2023-03-30T07:56:48;6.80;;;1.23;;
19587;SDS011;9940;47.252;8.696;2023-03-30T07:59:17;5.03;;;1.42;;
19587;SDS011;9940;47.252;8.696;2023-03-30T08:01:44;13.68;;;2.00;;
19587;SDS011;9940;47.252;8.696;2023-03-30T08:04:11;8.93;;;1.70;;
19587;SDS011;9940;47.252;8.696;2023-03-30T08:06:37;8.93;;;2.10;;
19587;SDS011;9940;47.252;8.696;2023-03-30T08:09:03;13.20;;;3.50;;
19587;SDS011;9940;47.252;8.696;2023-03-30T08:11:37;7.40;;;2.10;;
19587;SDS011;9940;47.252;8.696;2023-03-30T08:14:03;9.52;;;1.70;;
19587;SDS011;9940;47.252;8.696;2023-03-30T08:16:29;33.95;;;7.10;;
19587;SDS011;9940;47.252;8.696;2023-03-30T08:18:57;35.22;;;9.85;;
19587;SDS011;9940;47.252;8.696;2023-03-30T08:21:23;14.45;;;3.50;;
19587;SDS011;9940;47.252;8.696;2023-03-30T08:23:53;11.77;;;2.35;;
19587;SDS011;9940;47.252;8.696;2023-03-30T08:26:22;11.15;;;1.92;;
19587;SDS011;9940;47.252;8.696;2023-03-30T08:28:47;6.82;;;1.92;;
19587;SDS011;9940;47.252;8.696;2023-03-30T08:31:13;5.97;;;2.28;;
19587;SDS011;9940;47.252;8.696;2023-03-30T08:33:42;7.03;;;2.20;;
19587;SDS011;9940;47.252;8.696;2023-03-30T08:36:08;10.85;;;1.85;;
19587;SDS011;9940;47.252;8.696;2023-03-30T08:38:38;13.63;;;1.80;;
19587;SDS011;9940;47.252;8.696;2023-03-30T08:41:17;11.23;;;2.33;;
19587;SDS011;9940;47.252;8.696;2023-03-30T08:48:54;11.93;;;2.78;;
19587;SDS011;9940;47.252;8.696;2023-03-30T08:51:27;9.60;;;1.83;;
19587;SDS011;9940;47.252;8.696;2023-03-30T08:53:55;6.88;;;1.40;;
19587;SDS011;9940;47.252;8.696;2023-03-30T09:06:59;12.93;;;2.08;;
19587;SDS011;9940;47.252;8.696;2023-03-30T09:09:27;10.10;;;1.60;;
19587;SDS011;9940;47.252;8.696;2023-03-30T09:12:01;9.23;;;1.83;;
19587;SDS011;9940;47.252;8.696;2023-03-30T09:14:31;6.25;;;1.42;;
19587;SDS011;9940;47.252;8.696;2023-03-30T09:17:11;8.07;;;1.70;;
19587;SDS011;9940;47.252;8.696;2023-03-30T09:19:46;5.43;;;1.30;;
19587;SDS011;9940;47.252;8.696;2023-03-30T09:22:13;3.97;;;1.27;;
19587;SDS011;9940;47.252;8.696;2023-03-30T09:24:40;5.22;;;1.50;;
19587;SDS011;9940;47.252;8.696;2023-03-30T09:27:08;8.48;;;1.33;;
19587;SDS011;9940;47.252;8.696;2023-03-30T09:29:45;6.85;;;2.25;;
19587;SDS011;9940;47.252;8.696;2023-03-30T09:35:30;7.82;;;1.67;;
19587;SDS011;9940;47.252;8.696;2023-03-30T09:38:02;4.90;;;1.17;;
19587;SDS011;9940;47.252;8.696;2023-03-30T09:41:02;7.93;;;1.67;;
19587;SDS011;9940;47.252;8.696;2023-03-30T09:43:42;6.85;;;1.67;;
19587;SDS011;9940;47.252;8.696;2023-03-30T09:46:10;10.70;;;1.60;;
19587;SDS011;9940;47.252;8.696;2023-03-30T09:48:42;5.68;;;1.88;;
19587;SDS011;9940;47.252;8.696;2023-03-30T09:51:13;3.03;;;1.52;;
19587;SDS011;9940;47.252;8.696;2023-03-30T09:53:51;5.95;;;1.75;;
19587;SDS011;9940;47.252;8.696;2023-03-30T09:56:39;6.38;;;1.35;;
19587;SDS011;9940;47.252;8.696;2023-03-30T09:59:44;10.98;;;1.63;;
19587;SDS011;9940;47.252;8.696;2023-03-30T10:10:15;8.38;;;2.72;;
19587;SDS011;9940;47.252;8.696;2023-03-30T10:12:55;6.28;;;2.35;;
19587;SDS011;9940;47.252;8.696;2023-03-30T10:17:54;10.60;;;2.58;;
19587;SDS011;9940;47.252;8.696;2023-03-30T10:20:34;4.03;;;2.22;;
19587;SDS011;9940;47.252;8.696;2023-03-30T10:23:04;10.93;;;2.67;;
19587;SDS011;9940;47.252;8.696;2023-03-30T10:25:38;8.43;;;1.83;;
19587;SDS011;9940;47.252;8.696;2023-03-30T10:28:14;6.57;;;2.47;;
19587;SDS011;9940;47.252;8.696;2023-03-30T10:30:49;7.78;;;2.30;;
19587;SDS011;9940;47.252;8.696;2023-03-30T10:33:16;7.82;;;2.30;;
19587;SDS011;9940;47.252;8.696;2023-03-30T10:35:45;13.40;;;2.45;;
19587;SDS011;9940;47.252;8.696;2023-03-30T10:38:15;2.53;;;2.00;;
19587;SDS011;9940;47.252;8.696;2023-03-30T10:40:41;11.45;;;1.88;;
19587;SDS011;9940;47.252;8.696;2023-03-30T10:43:16;4.72;;;2.08;;
19587;SDS011;9940;47.252;8.696;2023-03-30T10:45:53;7.28;;;1.90;;
19587;SDS011;9940;47.252;8.696;2023-03-30T10:48:33;10.10;;;2.50;;
19587;SDS011;9940;47.252;8.696;2023-03-30T10:56:56;5.78;;;1.88;;
19587;SDS011;9940;47.252;8.696;2023-03-30T11:04:47;6.35;;;1.98;;
19587;SDS011;9940;47.252;8.696;2023-03-30T11:10:09;6.90;;;2.97;;
19587;SDS011;9940;47.252;8.696;2023-03-30T11:12:42;8.48;;;2.03;;
19587;SDS011;9940;47.252;8.696;2023-03-30T11:18:06;4.78;;;1.27;;
19587;SDS011;9940;47.252;8.696;2023-03-30T11:26:28;5.65;;;1.85;;
19587;SDS011;9940;47.252;8.696;2023-03-30T11:29:04;4.25;;;2.28;;
19587;SDS011;9940;47.252;8.696;2023-03-30T11:34:38;6.25;;;1.77;;
19587;SDS011;9940;47.252;8.696;2023-03-30T11:42:51;3.85;;;1.42;;
19587;SDS011;9940;47.252;8.696;2023-03-30T11:45:33;4.93;;;1.65;;
19587;SDS011;9940;47.252;8.696;2023-03-30T11:53:13;4.95;;;1.90;;
19587;SDS011;9940;47.252;8.696;2023-03-30T11:58:34;7.18;;;3.05;;
19587;SDS011;9940;47.252;8.696;2023-03-30T12:01:27;7.28;;;2.05;;
19587;SDS011;9940;47.252;8.696;2023-03-30T12:04:11;4.90;;;1.92;;
19587;SDS011;9940;47.252;8.696;2023-03-30T12:06:50;4.80;;;2.83;;
19587;SDS011;9940;47.252;8.696;2023-03-30T12:23:16;7.88;;;1.90;;
19587;SDS011;9940;47.252;8.696;2023-03-30T12:26:07;5.13;;;2.08;;
19587;SDS011;9940;47.252;8.696;2023-03-30T12:28:58;3.70;;;1.80;;
19587;SDS011;9940;47.252;8.696;2023-03-30T12:34:51;7.65;;;1.92;;
19587;SDS011;9940;47.252;8.696;2023-03-30T12:37:30;4.65;;;1.98;;
19587;SDS011;9940;47.252;8.696;2023-03-30T12:40:05;6.57;;;2.10;;
19587;SDS011;9940;47.252;8.696;2023-03-30T12:42:39;5.78;;;1.90;;
19587;SDS011;9940;47.252;8.696;2023-03-30T12:50:17;6.78;;;2.00;;
19587;SDS011;9940;47.252;8.696;2023-03-30T13:03:59;5.70;;;2.22;;
19587;SDS011;9940;47.252;8.696;2023-03-30T13:06:34;5.70;;;2.20;;
19587;SDS011;9940;47.252;8.696;2023-03-30T13:19:23;3.95;;;2.20;;
19587;SDS011;9940;47.252;8.696;2023-03-30T13:21:57;3.63;;;2.50;;
19587;SDS011;9940;47.252;8.696;2023-03-30T13:29:55;4.88;;;2.58;;
19587;SDS011;9940;47.252;8.696;2023-03-30T13:52:15;9.88;;;2.50;;
19587;SDS011;9940;47.252;8.696;2023-03-30T13:54:50;6.82;;;2.25;;
19587;SDS011;9940;47.252;8.696;2023-03-30T13:57:19;4.63;;;2.20;;
19587;SDS011;9940;47.252;8.696;2023-03-30T13:59:51;3.88;;;2.40;;
19587;SDS011;9940;47.252;8.696;2023-03-30T14:02:21;4.37;;;2.10;;
19587;SDS011;9940;47.252;8.696;2023-03-30T14:04:48;6.53;;;2.00;;
19587;SDS011;9940;47.252;8.696;2023-03-30T14:09:42;11.55;;;2.28;;
19587;SDS011;9940;47.252;8.696;2023-03-30T14:12:25;5.88;;;1.92;;
19587;SDS011;9940;47.252;8.696;2023-03-30T14:14:51;5.57;;;2.30;;
19587;SDS011;9940;47.252;8.696;2023-03-30T14:17:18;2.97;;;1.73;;
19587;SDS011;9940;47.252;8.696;2023-03-30T14:22:25;4.70;;;2.30;;
19587;SDS011;9940;47.252;8.696;2023-03-30T14:24:59;5.35;;;2.20;;
19587;SDS011;9940;47.252;8.696;2023-03-30T14:27:35;5.32;;;2.40;;
19587;SDS011;9940;47.252;8.696;2023-03-30T14:35:31;7.63;;;2.72;;
19587;SDS011;9940;47.252;8.696;2023-03-30T14:37:57;8.73;;;3.17;;
19587;SDS011;9940;47.252;8.696;2023-03-30T14:40:22;8.38;;;3.58;;
19587;SDS011;9940;47.252;8.696;2023-03-30T14:42:51;3.72;;;2.75;;
19587;SDS011;9940;47.252;8.696;2023-03-30T14:45:17;6.45;;;2.67;;
19587;SDS011;9940;47.252;8.696;2023-03-30T14:47:44;5.95;;;2.65;;
19587;SDS011;9940;47.252;8.696;2023-03-30T14:50:12;7.20;;;2.65;;
19587;SDS011;9940;47.252;8.696;2023-03-30T14:52:44;5.88;;;2.50;;
19587;SDS011;9940;47.252;8.696;2023-03-30T14:55:11;5.85;;;2.80;;
19587;SDS011;9940;47.252;8.696;2023-03-30T14:57:44;7.10;;;2.85;;
19587;SDS011;9940;47.252;8.696;2023-03-30T15:00:12;8.68;;;3.40;;
19587;SDS011;9940;47.252;8.696;2023-03-30T15:02:45;4.57;;;2.78;;
19587;SDS011;9940;47.252;8.696;2023-03-30T15:05:19;6.75;;;2.88;;
19587;SDS011;9940;47.252;8.696;2023-03-30T15:07:51;5.30;;;2.80;;
19587;SDS011;9940;47.252;8.696;2023-03-30T15:10:51;9.45;;;3.53;;
19587;SDS011;9940;47.252;8.696;2023-03-30T15:13:19;7.03;;;3.15;;
19587;SDS011;9940;47.252;8.696;2023-03-30T15:15:48;7.80;;;3.35;;
19587;SDS011;9940;47.252;8.696;2023-03-30T15:18:19;6.55;;;3.15;;
19587;SDS011;9940;47.252;8.696;2023-03-30T15:20:49;6.78;;;3.13;;
19587;SDS011;9940;47.252;8.696;2023-03-30T15:23:15;8.80;;;4.05;;
19587;SDS011;9940;47.252;8.696;2023-03-30T15:25:40;6.53;;;3.42;;
19587;SDS011;9940;47.252;8.696;2023-03-30T15:28:12;3.80;;;2.67;;
19587;SDS011;9940;47.252;8.696;2023-03-30T15:30:43;6.65;;;3.20;;
19587;SDS011;9940;47.252;8.696;2023-03-30T15:35:44;6.40;;;3.72;;
19587;SDS011;9940;47.252;8.696;2023-03-30T15:45:38;5.68;;;3.28;;
19587;SDS011;9940;47.252;8.696;2023-03-30T15:48:09;5.68;;;3.70;;
19587;SDS011;9940;47.252;8.696;2023-03-30T15:50:36;6.70;;;2.75;;
19587;SDS011;9940;47.252;8.696;2023-03-30T15:53:05;6.53;;;2.75;;
19587;SDS011;9940;47.252;8.696;2023-03-30T15:55:35;5.60;;;3.30;;
19587;SDS011;9940;47.252;8.696;2023-03-30T15:58:04;9.07;;;3.80;;
19587;SDS011;9940;47.252;8.696;2023-03-30T16:00:34;7.20;;;3.05;;
19587;SDS011;9940;47.252;8.696;2023-03-30T16:03:00;5.88;;;3.58;;
19587;SDS011;9940;47.252;8.696;2023-03-30T16:05:28;6.53;;;2.70;;
19587;SDS011;9940;47.252;8.696;2023-03-30T16:07:55;6.43;;;2.97;;
19587;SDS011;9940;47.252;8.696;2023-03-30T16:10:23;4.30;;;3.90;;
19587;SDS011;9940;47.252;8.696;2023-03-30T16:12:50;5.65;;;3.28;;
19587;SDS011;9940;47.252;8.696;2023-03-30T16:15:18;5.20;;;3.10;;
19587;SDS011;9940;47.252;8.696;2023-03-30T16:17:44;4.25;;;3.15;;
19587;SDS011;9940;47.252;8.696;2023-03-30T16:20:32;4.95;;;3.28;;
19587;SDS011;9940;47.252;8.696;2023-03-30T16:22:59;6.03;;;3.40;;
19587;SDS011;9940;47.252;8.696;2023-03-30T16:25:25;5.90;;;2.92;;
19587;SDS011;9940;47.252;8.696;2023-03-30T16:27:54;7.13;;;3.60;;
19587;SDS011;9940;47.252;8.696;2023-03-30T16:30:30;7.65;;;4.13;;
19587;SDS011;9940;47.252;8.696;2023-03-30T16:33:01;8.05;;;4.05;;
19587;SDS011;9940;47.252;8.696;2023-03-30T16:35:27;6.03;;;3.53;;
19587;SDS011;9940;47.252;8.696;2023-03-30T16:37:54;8.93;;;4.05;;
19587;SDS011;9940;47.252;8.696;2023-03-30T16:42:52;4.88;;;3.15;;
19587;SDS011;9940;47.252;8.696;2023-03-30T16:45:20;5.80;;;3.50;;
19587;SDS011;9940;47.252;8.696;2023-03-30T16:47:46;4.90;;;2.80;;
19587;SDS011;9940;47.252;8.696;2023-03-30T16:52:47;5.43;;;3.45;;
19587;SDS011;9940;47.252;8.696;2023-03-30T16:55:16;4.70;;;3.50;;
19587;SDS011;9940;47.252;8.696;2023-03-30T16:57:42;7.03;;;3.53;;
19587;SDS011;9940;47.252;8.696;2023-03-30T17:00:27;8.07;;;4.25;;
19587;SDS011;9940;47.252;8.696;2023-03-30T17:02:56;7.38;;;4.00;;
19587;SDS011;9940;47.252;8.696;2023-03-30T17:05:22;4.28;;;3.63;;
19587;SDS011;9940;47.252;8.696;2023-03-30T17:07:54;10.80;;;4.57;;
19587;SDS011;9940;47.252;8.696;2023-03-30T17:12:50;7.43;;;4.50;;
19587;SDS011;9940;47.252;8.696;2023-03-30T17:15:16;9.52;;;3.90;;
19587;SDS011;9940;47.252;8.696;2023-03-30T17:17:42;6.80;;;5.10;;
19587;SDS011;9940;47.252;8.696;2023-03-30T17:20:51;9.57;;;4.75;;
19587;SDS011;9940;47.252;8.696;2023-03-30T17:22:57;5.50;;;4.25;;
19587;SDS011;9940;47.252;8.696;2023-03-30T17:25:23;6.88;;;3.75;;
19587;SDS011;9940;47.252;8.696;2023-03-30T17:27:51;5.50;;;3.92;;
19587;SDS011;9940;47.252;8.696;2023-03-30T17:32:48;6.88;;;4.90;;
19587;SDS011;9940;47.252;8.696;2023-03-30T17:35:15;9.57;;;4.22;;
19587;SDS011;9940;47.252;8.696;2023-03-30T17:37:43;6.63;;;3.90;;
19587;SDS011;9940;47.252;8.696;2023-03-30T17:40:13;9.07;;;4.53;;
19587;SDS011;9940;47.252;8.696;2023-03-30T17:42:40;7.05;;;3.88;;
19587;SDS011;9940;47.252;8.696;2023-03-30T17:45:09;7.28;;;3.65;;
19587;SDS011;9940;47.252;8.696;2023-03-30T17:47:36;8.93;;;4.72;;
19587;SDS011;9940;47.252;8.696;2023-03-30T17:50:09;7.70;;;4.20;;
19587;SDS011;9940;47.252;8.696;2023-03-30T17:52:50;8.07;;;4.40;;
19587;SDS011;9940;47.252;8.696;2023-03-30T17:55:18;7.30;;;4.80;;
19587;SDS011;9940;47.252;8.696;2023-03-30T17:57:45;10.45;;;5.35;;
19587;SDS011;9940;47.252;8.696;2023-03-30T18:00:27;11.68;;;5.35;;
19587;SDS011;9940;47.252;8.696;2023-03-30T18:02:57;11.35;;;5.90;;
19587;SDS011;9940;47.252;8.696;2023-03-30T18:05:28;10.32;;;4.30;;
19587;SDS011;9940;47.252;8.696;2023-03-30T18:07:56;6.15;;;4.10;;
19587;SDS011;9940;47.252;8.696;2023-03-30T18:10:32;7.13;;;4.90;;
19587;SDS011;9940;47.252;8.696;2023-03-30T18:13:00;7.70;;;4.30;;
19587;SDS011;9940;47.252;8.696;2023-03-30T18:15:26;7.30;;;4.20;;
19587;SDS011;9940;47.252;8.696;2023-03-30T18:17:52;7.70;;;4.43;;
19587;SDS011;9940;47.252;8.696;2023-03-30T18:20:27;11.40;;;5.32;;
19587;SDS011;9940;47.252;8.696;2023-03-30T18:22:56;11.25;;;5.25;;
19587;SDS011;9940;47.252;8.696;2023-03-30T18:25:22;10.40;;;4.90;;
19587;SDS011;9940;47.252;8.696;2023-03-30T18:27:47;14.38;;;6.70;;
19587;SDS011;9940;47.252;8.696;2023-03-30T18:30:21;13.25;;;6.55;;
19587;SDS011;9940;47.252;8.696;2023-03-30T18:32:52;15.80;;;8.82;;
19587;SDS011;9940;47.252;8.696;2023-03-30T18:35:22;10.75;;;5.20;;
19587;SDS011;9940;47.252;8.696;2023-03-30T18:37:52;12.80;;;7.63;;
19587;SDS011;9940;47.252;8.696;2023-03-30T18:42:56;16.05;;;7.47;;
19587;SDS011;9940;47.252;8.696;2023-03-30T18:45:25;12.35;;;5.63;;
19587;SDS011;9940;47.252;8.696;2023-03-30T18:47:56;11.27;;;6.33;;
19587;SDS011;9940;47.252;8.696;2023-03-30T18:53:03;11.95;;;6.07;;
19587;SDS011;9940;47.252;8.696;2023-03-30T18:55:31;11.27;;;7.68;;
19587;SDS011;9940;47.252;8.696;2023-03-30T18:58:02;13.13;;;6.65;;
19587;SDS011;9940;47.252;8.696;2023-03-30T19:00:32;7.07;;;4.90;;
19587;SDS011;9940;47.252;8.696;2023-03-30T19:03:01;11.00;;;4.95;;
19587;SDS011;9940;47.252;8.696;2023-03-30T19:05:30;8.90;;;5.05;;